createdAt,value
2023-05-11T00:00:27.643Z,32.71
2023-05-11T00:01:27.620Z,32.69
2023-05-11T00:02:27.709Z,32.64
2023-05-11T00:03:27.878Z,32.64
2023-05-11T00:04:27.799Z,32.68
2023-05-11T00:05:27.809Z,32.66
2023-05-11T00:06:27.848Z,32.61
2023-05-11T00:07:27.904Z,32.64
2023-05-11T00:08:27.968Z,32.62
2023-05-11T00:09:28.008Z,32.60
2023-05-11T00:10:28.080Z,32.62
2023-05-11T00:11:28.143Z,32.64
2023-05-11T00:12:28.203Z,32.60
2023-05-11T00:13:28.251Z,32.64
2023-05-11T00:14:28.303Z,32.56
2023-05-11T00:15:28.357Z,32.58
2023-05-11T00:16:28.422Z,32.57
2023-05-11T00:17:28.459Z,32.58
2023-05-11T00:18:28.519Z,32.56
2023-05-11T00:19:28.555Z,32.52
2023-05-11T00:20:28.608Z,32.54
2023-05-11T00:21:28.652Z,32.49
2023-05-11T00:22:28.726Z,32.56
2023-05-11T00:23:28.792Z,32.53
2023-05-11T00:24:28.832Z,32.54
2023-05-11T00:25:28.912Z,32.53
2023-05-11T00:26:28.961Z,32.47
2023-05-11T00:27:29.006Z,32.45
2023-05-11T00:28:29.067Z,32.49
2023-05-11T00:29:29.116Z,32.51
2023-05-11T00:30:29.308Z,32.44
2023-05-11T00:31:30.362Z,32.47
2023-05-11T00:32:29.324Z,32.51
2023-05-11T00:33:29.324Z,32.45
2023-05-11T00:34:29.395Z,32.49
2023-05-11T00:35:29.416Z,32.43
2023-05-11T00:36:29.535Z,32.44
2023-05-11T00:37:29.554Z,32.41
2023-05-11T00:38:29.598Z,32.45
2023-05-11T00:39:29.648Z,32.46
2023-05-11T00:40:29.696Z,32.44
2023-05-11T00:41:29.762Z,32.41
2023-05-11T00:42:29.813Z,32.40
2023-05-11T00:43:29.860Z,32.42
2023-05-11T00:44:29.908Z,32.40
2023-05-11T00:45:29.976Z,32.42
2023-05-11T00:46:30.020Z,32.37
2023-05-11T00:47:30.097Z,32.34
2023-05-11T00:48:30.140Z,32.34
2023-05-11T00:49:30.190Z,32.35
2023-05-11T00:50:30.240Z,32.31
2023-05-11T00:51:30.280Z,32.30
2023-05-11T00:52:30.346Z,32.35
2023-05-11T00:53:30.409Z,32.36
2023-05-11T00:54:30.488Z,32.35
2023-05-11T00:55:30.514Z,32.30
2023-05-11T00:56:30.548Z,32.34
2023-05-11T00:57:30.592Z,32.33
2023-05-11T00:58:30.685Z,32.31
2023-05-11T00:59:30.747Z,32.31
2023-05-11T01:00:30.851Z,32.31
2023-05-11T01:01:30.822Z,32.34
2023-05-11T01:02:31.010Z,32.27
2023-05-11T01:03:30.935Z,32.26
2023-05-11T01:04:30.990Z,32.25
2023-05-11T01:05:31.070Z,32.27
2023-05-11T01:06:31.111Z,32.26
2023-05-11T01:07:31.164Z,32.23
2023-05-11T01:08:31.205Z,32.27
2023-05-11T01:09:31.266Z,32.28
2023-05-11T01:10:31.333Z,32.27
2023-05-11T01:11:31.413Z,32.21
2023-05-11T01:12:31.436Z,32.21
2023-05-11T01:13:31.468Z,32.23
2023-05-11T01:14:31.546Z,32.17
2023-05-11T01:15:31.606Z,32.20
2023-05-11T01:16:31.707Z,32.19
2023-05-11T01:17:31.740Z,32.23
2023-05-11T01:18:31.773Z,32.22
2023-05-11T01:19:31.818Z,32.10
2023-05-11T01:20:31.866Z,32.15
2023-05-11T01:21:31.902Z,32.19
2023-05-11T01:22:31.993Z,32.11
2023-05-11T01:23:32.015Z,32.16
2023-05-11T01:24:32.079Z,32.15
2023-05-11T01:25:32.167Z,32.10
2023-05-11T01:26:32.181Z,32.10
2023-05-11T01:27:32.264Z,32.11
2023-05-11T01:28:32.310Z,32.14
2023-05-11T01:29:32.343Z,32.12
2023-05-11T01:30:32.401Z,32.11
2023-05-11T01:31:32.474Z,32.11
2023-05-11T01:32:33.836Z,32.11
2023-05-11T01:33:32.493Z,32.06
2023-05-11T01:34:32.505Z,32.06
2023-05-11T01:35:32.485Z,32.07
2023-05-11T01:36:32.488Z,32.06
2023-05-11T01:37:32.470Z,32.03
2023-05-11T01:38:32.473Z,32.07
2023-05-11T01:39:32.454Z,32.03
2023-05-11T01:40:32.467Z,32.03
2023-05-11T01:41:32.433Z,32.02
2023-05-11T01:42:32.441Z,32.02
2023-05-11T01:43:32.411Z,32.01
2023-05-11T01:44:32.417Z,31.98
2023-05-11T01:45:32.404Z,31.98
2023-05-11T01:46:32.497Z,31.98
2023-05-11T01:47:32.429Z,31.99
2023-05-11T01:48:32.392Z,31.98
2023-05-11T01:49:32.387Z,31.96
2023-05-11T01:50:32.386Z,31.99
2023-05-11T01:51:32.387Z,31.95
2023-05-11T01:52:32.355Z,31.98
2023-05-11T01:53:32.370Z,31.93
2023-05-11T01:54:32.348Z,31.91
2023-05-11T01:55:32.350Z,31.92
2023-05-11T01:56:32.332Z,31.95
2023-05-11T01:57:32.305Z,31.91
2023-05-11T01:58:32.295Z,31.92
2023-05-11T01:59:32.314Z,31.87
2023-05-11T02:00:32.280Z,31.87
2023-05-11T02:01:32.364Z,31.85
2023-05-11T02:02:32.360Z,31.86
2023-05-11T02:03:32.318Z,31.90
2023-05-11T02:04:32.274Z,31.88
2023-05-11T02:05:32.275Z,31.91
2023-05-11T02:06:32.271Z,31.90
2023-05-11T02:07:32.253Z,31.82
2023-05-11T02:08:32.257Z,31.86
2023-05-11T02:09:32.307Z,31.92
2023-05-11T02:10:32.315Z,31.87
2023-05-11T02:11:32.382Z,31.86
2023-05-11T02:12:32.439Z,31.87
2023-05-11T02:13:32.477Z,31.87
2023-05-11T02:14:32.570Z,31.88
2023-05-11T02:15:32.610Z,31.86
2023-05-11T02:16:32.717Z,31.85
2023-05-11T02:17:32.736Z,31.82
2023-05-11T02:18:32.793Z,31.78
2023-05-11T02:19:32.888Z,31.82
2023-05-11T02:20:32.884Z,31.79
2023-05-11T02:21:33.583Z,31.76
2023-05-11T02:22:32.964Z,31.80
2023-05-11T02:23:33.063Z,31.83
2023-05-11T02:24:33.987Z,31.81
2023-05-11T02:25:33.142Z,31.75
2023-05-11T02:26:33.177Z,31.78
2023-05-11T02:27:33.237Z,31.72
2023-05-11T02:28:33.303Z,31.79
2023-05-11T02:29:33.409Z,31.70
2023-05-11T02:30:33.418Z,31.76
2023-05-11T02:31:33.480Z,31.73
2023-05-11T02:32:33.571Z,31.71
2023-05-11T02:33:33.572Z,31.72
2023-05-11T02:34:33.618Z,31.69
2023-05-11T02:35:33.680Z,31.68
2023-05-11T02:36:33.720Z,31.65
2023-05-11T02:37:33.770Z,31.71
2023-05-11T02:38:33.808Z,31.69
2023-05-11T02:39:33.912Z,31.68
2023-05-11T02:40:33.969Z,31.69
2023-05-11T02:41:33.979Z,31.68
2023-05-11T02:42:34.036Z,31.65
2023-05-11T02:43:34.098Z,31.67
2023-05-11T02:44:34.127Z,31.74
2023-05-11T02:45:34.182Z,31.65
2023-05-11T02:46:34.280Z,31.62
2023-05-11T02:47:34.347Z,31.65
2023-05-11T02:48:34.338Z,31.65
2023-05-11T02:49:34.391Z,31.67
2023-05-11T02:50:34.452Z,31.66
2023-05-11T02:51:34.489Z,31.68
2023-05-11T02:52:34.565Z,31.62
2023-05-11T02:53:34.609Z,31.67
2023-05-11T02:54:34.677Z,31.65
2023-05-11T02:55:34.705Z,31.59
2023-05-11T02:56:34.825Z,31.63
2023-05-11T02:57:34.829Z,31.63
2023-05-11T02:58:34.915Z,31.63
2023-05-11T02:59:34.951Z,31.66
2023-05-11T03:00:35.026Z,31.63
2023-05-11T03:01:35.060Z,31.60
2023-05-11T03:02:35.282Z,31.62
2023-05-11T03:03:35.184Z,31.60
2023-05-11T03:04:35.186Z,31.64
2023-05-11T03:05:35.232Z,31.61
2023-05-11T03:06:35.267Z,31.55
2023-05-11T03:07:35.343Z,31.61
2023-05-11T03:08:35.425Z,31.57
2023-05-11T03:09:35.458Z,31.58
2023-05-11T03:10:35.500Z,31.59
2023-05-11T03:11:35.567Z,31.55
2023-05-11T03:12:35.619Z,31.57
2023-05-11T03:13:35.700Z,31.57
2023-05-11T03:14:35.752Z,31.55
2023-05-11T03:15:35.800Z,31.53
2023-05-11T03:16:35.835Z,31.60
2023-05-11T03:17:35.942Z,31.57
2023-05-11T03:18:36.036Z,31.50
2023-05-11T03:19:35.973Z,31.54
2023-05-11T03:20:36.046Z,31.56
2023-05-11T03:21:36.095Z,31.53
2023-05-11T03:22:36.161Z,31.48
2023-05-11T03:23:36.188Z,31.52
2023-05-11T03:24:36.264Z,31.51
2023-05-11T03:25:36.338Z,31.53
2023-05-11T03:26:36.367Z,31.54
2023-05-11T03:27:36.418Z,31.53
2023-05-11T03:28:36.510Z,31.52
2023-05-11T03:29:36.524Z,31.52
2023-05-11T03:30:36.572Z,31.52
2023-05-11T03:31:36.673Z,31.50
2023-05-11T03:32:36.752Z,31.51
2023-05-11T03:33:36.736Z,31.48
2023-05-11T03:34:36.804Z,31.44
2023-05-11T03:35:36.831Z,31.45
2023-05-11T03:36:36.895Z,31.47
2023-05-11T03:37:36.965Z,31.44
2023-05-11T03:38:36.976Z,31.47
2023-05-11T03:39:37.053Z,31.50
2023-05-11T03:40:37.102Z,31.46
2023-05-11T03:41:37.150Z,31.46
2023-05-11T03:42:37.212Z,31.45
2023-05-11T03:43:37.326Z,31.41
2023-05-11T03:44:37.335Z,31.41
2023-05-11T03:45:37.367Z,31.44
2023-05-11T03:46:37.483Z,31.38
2023-05-11T03:47:37.498Z,31.42
2023-05-11T03:48:37.513Z,31.42
2023-05-11T03:49:37.619Z,31.38
2023-05-11T03:50:37.648Z,31.41
2023-05-11T03:51:37.679Z,31.39
2023-05-11T03:52:37.742Z,31.38
2023-05-11T03:53:37.783Z,31.42
2023-05-11T03:54:37.872Z,31.43
2023-05-11T03:55:37.875Z,31.42
2023-05-11T03:56:37.945Z,31.39
2023-05-11T03:57:37.988Z,31.34
2023-05-11T03:58:38.050Z,31.35
2023-05-11T03:59:38.093Z,31.36
2023-05-11T04:00:38.173Z,31.35
2023-05-11T04:01:38.202Z,31.39
2023-05-11T04:02:38.323Z,31.28
2023-05-11T04:03:38.478Z,31.39
2023-05-11T04:04:38.430Z,31.31
2023-05-11T04:05:38.425Z,31.37
2023-05-11T04:06:38.466Z,31.36
2023-05-11T04:07:38.514Z,31.33
2023-05-11T04:08:38.604Z,31.35
2023-05-11T04:09:38.624Z,31.37
2023-05-11T04:10:38.671Z,31.35
2023-05-11T04:11:38.744Z,31.33
2023-05-11T04:12:38.775Z,31.32
2023-05-11T04:13:38.808Z,31.33
2023-05-11T04:14:38.879Z,31.33
2023-05-11T04:15:38.914Z,31.33
2023-05-11T04:16:39.116Z,31.30
2023-05-11T04:17:39.035Z,31.31
2023-05-11T04:18:39.206Z,31.33
2023-05-11T04:19:39.140Z,31.34
2023-05-11T04:20:39.224Z,31.33
2023-05-11T04:21:39.251Z,31.32
2023-05-11T04:22:39.306Z,31.29
2023-05-11T04:23:39.393Z,31.33
2023-05-11T04:24:39.418Z,31.32
2023-05-11T04:25:39.453Z,31.29
2023-05-11T04:26:39.497Z,31.31
2023-05-11T04:27:39.549Z,31.32
2023-05-11T04:28:39.592Z,31.28
2023-05-11T04:29:39.726Z,31.30
2023-05-11T04:30:39.697Z,31.31
2023-05-11T04:31:39.807Z,31.26
2023-05-11T04:32:39.851Z,31.28
2023-05-11T04:33:39.854Z,31.23
2023-05-11T04:34:39.908Z,31.25
2023-05-11T04:35:39.972Z,31.28
2023-05-11T04:36:40.023Z,31.22
2023-05-11T04:37:40.081Z,31.21
2023-05-11T04:38:40.112Z,31.22
2023-05-11T04:39:40.182Z,31.22
2023-05-11T04:40:40.225Z,31.24
2023-05-11T04:41:40.258Z,31.25
2023-05-11T04:42:40.343Z,31.21
2023-05-11T04:43:40.375Z,31.21
2023-05-11T04:44:40.428Z,31.19
2023-05-11T04:45:40.475Z,31.17
2023-05-11T04:46:40.605Z,31.21
2023-05-11T04:47:40.580Z,31.20
2023-05-11T04:48:40.624Z,31.18
2023-05-11T04:49:40.686Z,31.15
2023-05-11T04:50:40.759Z,31.20
2023-05-11T04:51:40.785Z,31.22
2023-05-11T04:52:40.853Z,31.16
2023-05-11T04:53:42.141Z,31.16
2023-05-11T04:54:40.983Z,31.06
2023-05-11T04:55:41.040Z,31.05
2023-05-11T04:56:41.091Z,31.13
2023-05-11T04:57:41.144Z,31.11
2023-05-11T04:58:41.192Z,31.11
2023-05-11T04:59:41.242Z,31.10
2023-05-11T05:00:41.292Z,31.13
2023-05-11T05:01:41.551Z,31.12
2023-05-11T05:02:41.432Z,31.16
2023-05-11T05:03:42.228Z,31.08
2023-05-11T05:04:41.497Z,31.05
2023-05-11T05:05:41.546Z,31.06
2023-05-11T05:06:41.595Z,31.04
2023-05-11T05:07:41.661Z,31.07
2023-05-11T05:08:41.746Z,31.09
2023-05-11T05:09:43.707Z,31.10
2023-05-11T05:10:41.754Z,31.05
2023-05-11T05:11:41.770Z,31.01
2023-05-11T05:12:41.742Z,31.08
2023-05-11T05:13:41.769Z,31.04
2023-05-11T05:14:41.721Z,31.00
2023-05-11T05:15:41.713Z,31.01
2023-05-11T05:16:41.722Z,30.99
2023-05-11T05:17:41.737Z,30.95
2023-05-11T05:18:41.702Z,30.97
2023-05-11T05:19:41.689Z,30.93
2023-05-11T05:20:41.671Z,30.95
2023-05-11T05:21:41.678Z,30.94
2023-05-11T05:22:41.659Z,30.90
2023-05-11T05:23:41.658Z,30.94
2023-05-11T05:24:41.667Z,30.93
2023-05-11T05:25:41.645Z,30.94
2023-05-11T05:26:41.704Z,30.94
2023-05-11T05:27:41.615Z,30.87
2023-05-11T05:28:41.613Z,30.84
2023-05-11T05:29:41.613Z,30.76
2023-05-11T05:30:41.700Z,30.58
2023-05-11T05:31:41.592Z,30.53
2023-05-11T05:32:41.662Z,30.66
2023-05-11T05:33:41.677Z,30.81
2023-05-11T05:34:41.581Z,30.83
2023-05-11T05:35:41.621Z,30.83
2023-05-11T05:36:41.566Z,31.01
2023-05-11T05:37:41.668Z,31.03
2023-05-11T05:38:41.696Z,31.34
2023-05-11T05:39:41.624Z,31.47
2023-05-11T05:40:41.657Z,31.54
2023-05-11T05:41:41.530Z,31.69
2023-05-11T05:42:41.563Z,31.90
2023-05-11T05:43:41.756Z,32.06
2023-05-11T05:44:41.554Z,32.25
2023-05-11T05:45:41.714Z,32.35
2023-05-11T05:46:41.823Z,32.37
2023-05-11T05:47:41.805Z,32.40
2023-05-11T05:48:41.708Z,32.54
2023-05-11T05:49:42.645Z,32.57
2023-05-11T05:50:41.737Z,32.68
2023-05-11T05:51:42.644Z,32.72
2023-05-11T05:52:41.756Z,32.77
2023-05-11T05:53:41.729Z,32.83
2023-05-11T05:54:41.750Z,32.84
2023-05-11T05:55:41.750Z,31.63
2023-05-11T05:56:41.802Z,30.79
2023-05-11T05:57:41.806Z,30.45
2023-05-11T05:58:41.829Z,31.42
2023-05-11T05:59:41.931Z,31.90
2023-05-11T06:00:41.938Z,32.27
2023-05-11T06:01:41.928Z,32.60
2023-05-11T06:02:42.034Z,32.62
2023-05-11T06:03:42.111Z,32.78
2023-05-11T06:04:42.254Z,32.74
2023-05-11T06:05:42.026Z,32.82
2023-05-11T06:06:42.090Z,32.64
2023-05-11T06:07:43.002Z,32.85
2023-05-11T06:08:42.108Z,32.91
2023-05-11T06:09:42.085Z,32.93
2023-05-11T06:10:42.138Z,32.89
2023-05-11T06:11:42.135Z,32.93
2023-05-11T06:12:42.180Z,33.02
2023-05-11T06:13:42.276Z,33.07
2023-05-11T06:14:42.372Z,33.11
2023-05-11T06:15:46.983Z,33.12
2023-05-11T06:16:42.626Z,33.13
2023-05-11T06:17:42.436Z,33.12
2023-05-11T06:18:42.392Z,33.15
2023-05-11T06:19:42.437Z,33.14
2023-05-11T06:20:42.634Z,33.08
2023-05-11T06:21:42.367Z,33.07
2023-05-11T06:22:42.364Z,33.10
2023-05-11T06:23:42.363Z,33.08
2023-05-11T06:24:42.299Z,33.00
2023-05-11T06:25:42.305Z,33.06
2023-05-11T06:26:42.346Z,33.06
2023-05-11T06:27:42.297Z,33.01
2023-05-11T06:28:42.292Z,33.04
2023-05-11T06:29:42.387Z,33.04
2023-05-11T06:30:42.645Z,33.05
2023-05-11T06:31:42.628Z,33.04
2023-05-11T06:32:42.568Z,32.98
2023-05-11T06:33:42.600Z,32.93
2023-05-11T06:34:42.650Z,32.83
2023-05-11T06:35:43.219Z,32.79
2023-05-11T06:36:42.760Z,32.75
2023-05-11T06:37:42.837Z,32.69
2023-05-11T06:38:42.870Z,32.47
2023-05-11T06:39:42.926Z,32.33
2023-05-11T06:40:43.193Z,32.19
2023-05-11T06:41:43.067Z,32.07
2023-05-11T06:42:43.100Z,31.96
2023-05-11T06:43:43.204Z,31.49
2023-05-11T06:44:43.266Z,31.56
2023-05-11T06:45:43.679Z,31.61
2023-05-11T06:46:43.331Z,31.93
2023-05-11T06:47:43.447Z,32.11
2023-05-11T06:48:43.545Z,32.35
2023-05-11T06:49:43.598Z,32.20
2023-05-11T06:50:43.652Z,32.08
2023-05-11T06:51:43.648Z,32.16
2023-05-11T06:52:44.666Z,31.86
2023-05-11T06:53:43.744Z,32.19
2023-05-11T06:54:43.834Z,32.04
2023-05-11T06:55:44.155Z,32.28
2023-05-11T06:56:43.986Z,32.13
2023-05-11T06:57:44.013Z,32.35
2023-05-11T06:58:44.062Z,32.36
2023-05-11T06:59:44.124Z,32.20
2023-05-11T07:00:44.241Z,32.55
2023-05-11T07:01:44.404Z,32.46
2023-05-11T07:02:44.274Z,32.38
2023-05-11T07:03:44.303Z,32.39
2023-05-11T07:04:44.447Z,32.46
2023-05-11T07:05:44.644Z,32.39
2023-05-11T07:06:44.425Z,32.32
2023-05-11T07:07:44.517Z,32.35
2023-05-11T07:08:44.536Z,32.41
2023-05-11T07:09:44.613Z,32.36
2023-05-11T07:10:44.657Z,32.22
2023-05-11T07:11:44.651Z,32.36
2023-05-11T07:12:44.706Z,32.18
2023-05-11T07:13:44.717Z,32.28
2023-05-11T07:14:44.862Z,32.36
2023-05-11T07:15:45.133Z,32.28
2023-05-11T07:16:44.912Z,32.11
2023-05-11T07:17:44.934Z,32.00
2023-05-11T07:18:44.975Z,31.88
2023-05-11T07:19:45.042Z,31.29
2023-05-11T07:20:45.678Z,31.16
2023-05-11T07:21:45.084Z,31.08
2023-05-11T07:22:45.167Z,31.42
2023-05-11T07:23:45.119Z,31.58
2023-05-11T07:24:45.140Z,31.60
2023-05-11T07:25:45.669Z,31.75
2023-05-11T07:26:45.234Z,31.74
2023-05-11T07:27:45.253Z,31.72
2023-05-11T07:28:45.280Z,31.91
2023-05-11T07:29:45.285Z,31.88
2023-05-11T07:30:45.751Z,31.84
2023-05-11T07:31:45.453Z,31.72
2023-05-11T07:32:45.445Z,31.47
2023-05-11T07:33:45.500Z,31.33
2023-05-11T07:34:45.472Z,31.36
2023-05-11T07:35:45.544Z,31.46
2023-05-11T07:36:45.571Z,31.36
2023-05-11T07:37:45.581Z,31.27
2023-05-11T07:38:45.664Z,31.26
2023-05-11T07:39:45.682Z,31.03
2023-05-11T07:40:45.752Z,30.89
2023-05-11T07:41:45.771Z,30.87
2023-05-11T07:42:45.788Z,30.80
2023-05-11T07:43:45.870Z,30.84
2023-05-11T07:44:45.919Z,30.89
2023-05-11T07:45:45.973Z,30.91
2023-05-11T07:46:46.110Z,30.86
2023-05-11T07:47:46.041Z,30.68
2023-05-11T07:48:46.113Z,30.73
2023-05-11T07:49:46.163Z,31.09
2023-05-11T07:50:46.244Z,31.11
2023-05-11T07:51:46.267Z,31.26
2023-05-11T07:52:46.341Z,31.40
2023-05-11T07:53:46.384Z,31.38
2023-05-11T07:54:46.558Z,31.35
2023-05-11T07:55:46.540Z,31.31
2023-05-11T07:56:46.697Z,31.09
2023-05-11T07:57:46.635Z,31.08
2023-05-11T07:58:46.715Z,30.88
2023-05-11T07:59:46.726Z,30.82
2023-05-11T08:00:47.164Z,31.07
2023-05-11T08:01:46.891Z,31.09
2023-05-11T08:02:47.128Z,31.08
2023-05-11T08:03:46.988Z,30.93
2023-05-11T08:04:47.037Z,30.92
2023-05-11T08:05:47.168Z,31.07
2023-05-11T08:06:47.159Z,31.16
2023-05-11T08:07:47.225Z,31.12
2023-05-11T08:08:47.249Z,31.11
2023-05-11T08:09:47.336Z,30.87
2023-05-11T08:10:47.393Z,30.78
2023-05-11T08:11:47.447Z,30.78
2023-05-11T08:12:47.618Z,30.84
2023-05-11T08:13:47.664Z,31.02
2023-05-11T08:14:47.741Z,30.88
2023-05-11T08:15:47.719Z,30.74
2023-05-11T08:16:48.194Z,30.74
2023-05-11T08:17:47.920Z,30.44
2023-05-11T08:18:47.891Z,30.34
2023-05-11T08:19:47.957Z,30.49
2023-05-11T08:20:48.175Z,30.89
2023-05-11T08:21:48.058Z,30.95
2023-05-11T08:22:48.164Z,31.00
2023-05-11T08:23:48.163Z,31.04
2023-05-11T08:24:48.233Z,31.48
2023-05-11T08:25:49.160Z,31.61
2023-05-11T08:26:48.300Z,31.73
2023-05-11T08:27:48.379Z,31.42
2023-05-11T08:28:48.423Z,31.41
2023-05-11T08:29:48.460Z,29.82
2023-05-11T08:30:48.440Z,29.18
2023-05-11T08:31:48.507Z,28.87
2023-05-11T08:32:57.966Z,28.77
2023-05-11T08:33:49.559Z,28.80
2023-05-11T08:34:48.588Z,28.80
2023-05-11T08:35:48.486Z,28.89
2023-05-11T08:36:48.502Z,28.70
2023-05-11T08:37:48.517Z,29.01
2023-05-11T08:38:48.502Z,29.24
2023-05-11T08:39:48.485Z,29.50
2023-05-11T08:40:48.464Z,29.75
2023-05-11T08:41:48.498Z,30.02
2023-05-11T08:42:48.460Z,30.13
2023-05-11T08:43:48.439Z,30.13
2023-05-11T08:44:48.490Z,30.25
2023-05-11T08:45:48.444Z,30.24
2023-05-11T08:46:48.669Z,30.53
2023-05-11T08:47:48.424Z,30.55
2023-05-11T08:48:48.407Z,30.64
2023-05-11T08:49:48.456Z,30.87
2023-05-11T08:50:48.432Z,30.95
2023-05-11T08:51:48.676Z,30.98
2023-05-11T08:52:48.538Z,31.00
2023-05-11T08:53:49.170Z,31.02
2023-05-11T08:54:48.618Z,30.99
2023-05-11T08:55:48.646Z,31.20
2023-05-11T08:56:48.702Z,31.27
2023-05-11T08:57:48.716Z,31.33
2023-05-11T08:58:48.724Z,31.46
2023-05-11T08:59:48.870Z,31.42
2023-05-11T09:00:48.926Z,31.27
2023-05-11T09:01:49.209Z,31.41
2023-05-11T09:02:48.993Z,31.45
2023-05-11T09:03:49.070Z,31.53
2023-05-11T09:04:49.351Z,31.58
2023-05-11T09:05:49.205Z,31.60
2023-05-11T09:06:49.174Z,31.60
2023-05-11T09:07:49.190Z,31.82
2023-05-11T09:08:49.266Z,31.83
2023-05-11T09:09:49.331Z,31.84
2023-05-11T09:10:49.430Z,31.75
2023-05-11T09:11:49.847Z,31.62
2023-05-11T09:12:49.526Z,31.83
2023-05-11T09:13:49.560Z,31.85
2023-05-11T09:14:49.618Z,31.89
2023-05-11T09:15:49.674Z,31.87
2023-05-11T09:16:49.732Z,31.87
2023-05-11T09:17:49.828Z,31.92
2023-05-11T09:18:49.831Z,31.94
2023-05-11T09:19:49.785Z,31.94
2023-05-11T09:20:49.848Z,31.97
2023-05-11T09:21:49.903Z,32.01
2023-05-11T09:22:49.877Z,32.02
2023-05-11T09:23:49.914Z,32.03
2023-05-11T09:24:49.980Z,32.03
2023-05-11T09:25:49.977Z,32.08
2023-05-11T09:26:50.239Z,32.07
2023-05-11T09:27:50.022Z,32.02
2023-05-11T09:29:52.339Z,31.94
2023-05-11T09:30:50.037Z,31.71
2023-05-11T09:31:50.239Z,31.79
2023-05-11T09:32:50.072Z,31.83
2023-05-11T09:33:50.049Z,31.93
2023-05-11T09:34:50.024Z,31.91
2023-05-11T09:35:50.060Z,31.97
2023-05-11T09:36:50.154Z,31.97
2023-05-11T09:37:50.094Z,32.00
2023-05-11T09:38:50.120Z,32.05
2023-05-11T09:40:50.122Z,32.09
2023-05-11T09:41:51.863Z,32.14
2023-05-11T09:42:50.140Z,32.17
2023-05-11T09:43:50.128Z,32.21
2023-05-11T09:44:50.177Z,31.73
2023-05-11T09:45:50.217Z,31.92
2023-05-11T09:46:50.706Z,32.11
2023-05-11T09:47:50.260Z,32.04
2023-05-11T09:48:50.240Z,32.00
2023-05-11T09:49:50.265Z,31.98
2023-05-11T09:50:50.303Z,32.10
2023-05-11T09:51:51.152Z,32.19
2023-05-11T09:52:50.314Z,31.80
2023-05-11T09:53:50.328Z,32.15
2023-05-11T09:54:50.368Z,32.10
2023-05-11T09:55:50.381Z,32.16
2023-05-11T09:56:50.388Z,32.14
2023-05-11T09:57:50.680Z,32.15
2023-05-11T09:58:50.457Z,32.15
2023-05-11T09:59:50.435Z,32.17
2023-05-11T10:00:50.486Z,32.21
2023-05-11T10:01:50.550Z,31.86
2023-05-11T10:02:50.572Z,31.96
2023-05-11T10:03:50.604Z,32.15
2023-05-11T10:04:50.602Z,32.21
2023-05-11T10:05:50.564Z,32.01
2023-05-11T10:06:50.872Z,32.24
2023-05-11T10:07:50.579Z,32.66
2023-05-11T10:08:50.575Z,32.57
2023-05-11T10:09:50.594Z,32.40
2023-05-11T10:10:50.607Z,32.22
2023-05-11T10:11:50.656Z,32.51
2023-05-11T10:12:50.650Z,32.46
2023-05-11T10:13:50.707Z,32.81
2023-05-11T10:14:50.717Z,32.88
2023-05-11T10:15:50.760Z,32.60
2023-05-11T10:16:50.773Z,32.94
2023-05-11T10:17:50.816Z,32.52
2023-05-11T10:18:50.814Z,32.68
2023-05-11T10:19:50.827Z,32.63
2023-05-11T10:20:50.835Z,32.61
2023-05-11T10:21:50.915Z,32.68
2023-05-11T10:22:50.875Z,32.60
2023-05-11T10:23:50.859Z,32.66
2023-05-11T10:24:50.913Z,32.58
2023-05-11T10:25:50.891Z,32.84
2023-05-11T10:26:50.934Z,33.22
2023-05-11T10:27:50.964Z,33.16
2023-05-11T10:28:50.927Z,33.43
2023-05-11T10:29:51.168Z,33.43
2023-05-11T10:30:50.928Z,33.46
2023-05-11T10:31:51.071Z,33.82
2023-05-11T10:32:50.971Z,33.94
2023-05-11T10:33:50.931Z,33.76
2023-05-11T10:34:51.012Z,33.89
2023-05-11T10:35:52.082Z,34.12
2023-05-11T10:36:50.965Z,33.96
2023-05-11T10:37:50.944Z,33.74
2023-05-11T10:38:50.961Z,33.58
2023-05-11T10:39:50.968Z,33.45
2023-05-11T10:40:50.967Z,33.56
2023-05-11T10:41:50.977Z,33.89
2023-05-11T10:42:51.162Z,33.68
2023-05-11T10:43:50.936Z,33.84
2023-05-11T10:44:50.974Z,34.99
2023-05-11T10:45:51.732Z,34.60
2023-05-11T10:46:50.943Z,34.58
2023-05-11T10:47:50.969Z,34.33
2023-05-11T10:48:50.982Z,34.02
2023-05-11T10:49:50.929Z,34.36
2023-05-11T10:50:50.992Z,34.19
2023-05-11T10:51:50.900Z,34.15
2023-05-11T10:52:50.955Z,36.23
2023-05-11T10:53:50.947Z,34.82
2023-05-11T10:54:50.878Z,34.84
2023-05-11T10:55:50.902Z,35.35
2023-05-11T10:56:50.848Z,35.25
2023-05-11T10:57:50.813Z,35.23
2023-05-11T10:58:50.798Z,34.88
2023-05-11T10:59:50.800Z,34.84
2023-05-11T11:00:50.832Z,34.77
2023-05-11T11:01:50.881Z,35.06
2023-05-11T11:02:50.828Z,35.38
2023-05-11T11:03:50.768Z,34.80
2023-05-11T11:04:50.815Z,34.75
2023-05-11T11:05:50.800Z,34.60
2023-05-11T11:06:50.766Z,34.23
2023-05-11T11:07:51.167Z,34.56
2023-05-11T11:08:50.751Z,34.42
2023-05-11T11:09:50.807Z,34.43
2023-05-11T11:10:50.757Z,35.22
2023-05-11T11:11:50.721Z,35.21
2023-05-11T11:12:50.715Z,34.79
2023-05-11T11:13:51.700Z,35.03
2023-05-11T11:14:50.786Z,36.28
2023-05-11T11:15:50.858Z,34.94
2023-05-11T11:16:50.946Z,34.81
2023-05-11T11:17:51.042Z,35.42
2023-05-11T11:18:51.037Z,34.81
2023-05-11T11:19:51.097Z,35.65
2023-05-11T11:20:51.177Z,34.50
2023-05-11T11:21:51.222Z,35.49
2023-05-11T11:22:51.333Z,34.34
2023-05-11T11:23:51.375Z,34.56
2023-05-11T11:24:51.377Z,33.59
2023-05-11T11:25:51.454Z,33.96
2023-05-11T11:26:51.530Z,34.66
2023-05-11T11:27:51.671Z,34.08
2023-05-11T11:28:51.600Z,33.32
2023-05-11T11:29:51.652Z,33.18
2023-05-11T11:30:51.676Z,32.71
2023-05-11T11:31:51.672Z,33.30
2023-05-11T11:32:51.772Z,32.64
2023-05-11T11:33:51.698Z,33.40
2023-05-11T11:34:51.722Z,32.15
2023-05-11T11:35:51.724Z,32.71
2023-05-11T11:36:51.700Z,31.27
2023-05-11T11:37:51.737Z,30.59
2023-05-11T11:38:51.704Z,30.89
2023-05-11T11:39:51.703Z,32.41
2023-05-11T11:40:52.482Z,33.49
2023-05-11T11:41:51.715Z,32.74
2023-05-11T11:42:51.723Z,33.44
2023-05-11T11:43:51.766Z,32.48
2023-05-11T11:44:51.768Z,31.96
2023-05-11T11:45:51.746Z,31.44
2023-05-11T11:46:51.781Z,31.38
2023-05-11T11:47:51.804Z,31.35
2023-05-11T11:48:54.394Z,31.19
2023-05-11T11:49:51.811Z,31.70
2023-05-11T11:50:51.768Z,31.32
2023-05-11T11:51:51.774Z,31.99
2023-05-11T11:52:51.754Z,31.89
2023-05-11T11:53:51.798Z,31.72
2023-05-11T11:54:51.734Z,32.33
2023-05-11T11:55:51.782Z,32.65
2023-05-11T11:56:51.742Z,32.79
2023-05-11T11:57:51.733Z,32.90
2023-05-11T11:58:51.714Z,32.80
2023-05-11T11:59:51.781Z,33.48
2023-05-11T12:00:51.735Z,32.81
2023-05-11T12:01:51.762Z,32.79
2023-05-11T12:02:51.818Z,32.25
2023-05-11T12:03:51.799Z,31.53
2023-05-11T12:04:51.721Z,30.88
2023-05-11T12:05:51.708Z,31.48
2023-05-11T12:06:51.663Z,30.88
2023-05-11T12:07:51.681Z,31.16
2023-05-11T12:08:51.640Z,31.06
2023-05-11T12:09:51.703Z,30.77
2023-05-11T12:10:51.640Z,31.47
2023-05-11T12:11:51.649Z,31.72
2023-05-11T12:12:51.665Z,31.78
2023-05-11T12:13:51.628Z,31.52
2023-05-11T12:14:51.612Z,31.62
2023-05-11T12:15:51.625Z,31.52
2023-05-11T12:16:51.636Z,31.60
2023-05-11T12:17:51.651Z,31.64
2023-05-11T12:18:51.624Z,31.60
2023-05-11T12:19:51.580Z,31.54
2023-05-11T12:20:51.592Z,31.40
2023-05-11T12:21:51.567Z,31.53
2023-05-11T12:22:51.568Z,31.37
2023-05-11T12:23:51.557Z,31.46
2023-05-11T12:24:51.554Z,31.28
2023-05-11T12:25:51.579Z,31.38
2023-05-11T12:26:51.562Z,31.20
2023-05-11T12:27:51.556Z,31.16
2023-05-11T12:28:51.557Z,31.21
2023-05-11T12:29:51.572Z,31.23
2023-05-11T12:30:51.514Z,30.66
2023-05-11T12:31:51.576Z,30.67
2023-05-11T12:32:56.477Z,30.71
2023-05-11T12:33:52.482Z,30.43
2023-05-11T12:34:51.490Z,30.57
2023-05-11T12:35:51.507Z,30.64
2023-05-11T12:36:51.461Z,30.90
2023-05-11T12:37:51.492Z,30.89
2023-05-11T12:38:52.216Z,30.84
2023-05-11T12:39:51.478Z,30.93
2023-05-11T12:40:51.439Z,30.93
2023-05-11T12:41:51.510Z,30.91
2023-05-11T12:42:51.573Z,30.90
2023-05-11T12:43:51.653Z,30.91
2023-05-11T12:44:51.685Z,30.89
2023-05-11T12:45:51.779Z,30.80
2023-05-11T12:46:51.773Z,30.66
2023-05-11T12:47:51.894Z,31.04
2023-05-11T12:48:51.894Z,31.26
2023-05-11T12:49:51.971Z,31.37
2023-05-11T12:50:52.029Z,30.96
2023-05-11T12:51:52.057Z,31.06
2023-05-11T12:52:52.124Z,31.07
2023-05-11T12:53:52.140Z,31.41
2023-05-11T12:54:52.198Z,31.01